Time;durP1;ratioP1;P1;durP2;ratioP2;P2;SDS_P1;SDS_P2;PMS_P1;PMS_P2;Temp;Humidity;BMP_temperature;BMP_pressure;BME280_temperature;BME280_humidity;BME280_pressure;Samples;Min_cycle;Max_cycle;Signal;HPM_P1;HPM_P2
2022/12/01 00:00:59;;;;;;;22.77;13.93;;;17.00;72.60;;;17.67;40.73;99727.25;5009956;28;20409;-76
2022/12/01 00:03:25;;;;;;;22.13;12.30;;;17.10;72.70;;;17.72;40.60;99724.41;5027238;28;20045;-76
2022/12/01 00:06:19;;;;;;;28.55;13.25;;;17.10;72.50;;;17.77;40.72;99721.59;5027750;28;20110;-76
2022/12/01 00:11:33;;;;;;;20.58;13.05;;;17.10;72.90;;;17.80;40.30;99722.97;5024830;28;20041;-76
2022/12/01 00:14:00;;;;;;;23.02;13.13;;;17.10;72.60;;;17.78;40.33;99720.50;5011262;28;20038;-76
2022/12/01 00:16:26;;;;;;;23.95;13.27;;;17.20;72.40;;;17.81;40.42;99721.03;5026290;28;20049;-76
2022/12/01 00:18:52;;;;;;;23.25;13.30;;;17.20;72.10;;;17.77;40.31;99720.78;5014777;28;20053;-76
2022/12/01 00:21:20;;;;;;;23.50;13.18;;;17.30;72.20;;;17.84;40.50;99717.72;5014592;28;20053;-76
2022/12/01 00:23:52;;;;;;;22.35;14.00;;;17.20;72.30;;;17.88;40.26;99727.75;5010268;28;20042;-76
2022/12/01 00:26:19;;;;;;;20.13;12.93;;;17.20;72.50;;;17.91;40.21;99727.19;5014276;28;20427;-76
2022/12/01 00:28:52;;;;;;;23.00;12.82;;;17.30;72.60;;;17.90;40.28;99733.78;5045537;28;20042;-76
2022/12/01 00:31:18;;;;;;;20.48;12.68;;;17.20;72.30;;;17.95;40.06;99727.38;4998382;28;20037;-76
2022/12/01 00:33:45;;;;;;;24.73;13.55;;;17.30;72.30;;;17.95;40.11;99719.16;5029616;28;20037;-76
2022/12/01 00:36:11;;;;;;;18.80;12.68;;;17.30;73.10;;;17.94;40.08;99736.75;5012752;28;20036;-76
2022/12/01 00:38:37;;;;;;;18.17;13.18;;;17.30;72.20;;;17.99;40.16;99728.44;5014288;28;20041;-76
2022/12/01 00:41:03;;;;;;;23.95;12.45;;;17.30;72.40;;;18.02;40.28;99725.06;5028401;28;20046;-76
2022/12/01 00:43:29;;;;;;;19.67;11.82;;;17.30;72.70;;;18.02;40.27;99730.56;4998528;28;20043;-76
2022/12/01 00:45:55;;;;;;;18.73;12.15;;;17.30;72.60;;;18.07;40.34;99724.19;5014590;28;20042;-76
2022/12/01 00:48:22;;;;;;;17.63;11.20;;;17.30;72.50;;;18.06;40.22;99726.09;4998564;28;20362;-76
2022/12/01 00:50:51;;;;;;;19.33;11.15;;;17.30;72.40;;;18.10;40.00;99723.56;5014388;28;20515;-76
2022/12/01 00:53:17;;;;;;;23.02;13.68;;;17.30;72.20;;;18.14;40.13;99728.16;5029255;28;20041;-76
2022/12/01 00:55:43;;;;;;;20.50;13.35;;;17.30;72.60;;;18.10;40.09;99729.88;5013619;28;20048;-76
2022/12/01 00:58:12;;;;;;;16.40;10.90;;;17.30;72.60;;;18.17;40.14;99718.50;5026757;28;20046;-76
2022/12/01 01:00:38;;;;;;;19.42;11.20;;;17.30;72.80;;;18.16;40.17;99725.91;5010251;28;20068;-76
2022/12/01 01:03:05;;;;;;;20.88;12.82;;;17.30;72.50;;;18.13;40.06;99729.28;5012316;28;20076;-76
2022/12/01 01:05:35;;;;;;;18.15;11.60;;;17.40;72.40;;;18.18;39.85;99720.13;5024234;28;20042;-76
2022/12/01 01:08:06;;;;;;;22.55;11.15;;;17.40;72.20;;;18.20;39.93;99720.66;5014470;28;20060;-77
2022/12/01 01:10:32;;;;;;;18.92;12.30;;;17.40;73.20;;;18.19;39.99;99708.84;5013871;28;20439;-77
2022/12/01 01:12:58;;;;;;;19.85;11.85;;;17.40;72.60;;;18.21;40.12;99714.03;5026101;28;20045;-76
2022/12/01 01:15:25;;;;;;;21.27;12.88;;;17.40;72.70;;;18.21;39.91;99706.59;4997924;28;20468;-76
2022/12/01 01:17:51;;;;;;;19.63;12.27;;;17.40;72.50;;;18.22;40.00;99713.75;5012582;28;20046;-77
2022/12/01 01:20:17;;;;;;;19.48;11.48;;;17.50;72.40;;;18.23;39.93;99709.06;5030210;28;20049;-76
2022/12/01 01:22:43;;;;;;;21.48;11.73;;;17.40;72.20;;;18.22;40.07;99702.75;5027875;28;20044;-76
2022/12/01 01:25:09;;;;;;;22.17;11.45;;;17.50;72.20;;;18.24;39.94;99705.19;5024639;28;20034;-76
2022/12/01 01:27:36;;;;;;;17.17;11.05;;;17.50;72.40;;;18.27;40.12;99701.84;4996729;28;20041;-76
2022/12/01 01:30:02;;;;;;;16.50;10.05;;;17.50;72.50;;;18.26;40.02;99697.47;5027525;28;20041;-76
2022/12/01 01:32:28;;;;;;;18.60;11.18;;;17.50;72.40;;;18.24;40.24;99694.19;5030089;28;20129;-76
2022/12/01 01:34:54;;;;;;;19.40;11.23;;;17.50;72.20;;;18.26;40.13;99702.16;5011821;28;20044;-76
2022/12/01 01:37:21;;;;;;;22.92;12.35;;;17.50;72.20;;;18.25;39.99;99692.28;5013194;28;20051;-76
2022/12/01 01:39:46;;;;;;;17.05;11.43;;;17.50;72.10;;;18.29;39.94;99693.28;5013793;28;20042;-76
2022/12/01 01:42:13;;;;;;;16.48;9.88;;;17.50;72.30;;;18.27;40.14;99690.88;5009696;28;20041;-76
2022/12/01 01:44:51;;;;;;;18.88;11.20;;;17.50;72.30;;;18.27;40.16;99681.78;4996507;28;20080;-77
2022/12/01 01:47:36;;;;;;;22.13;12.60;;;17.60;72.60;;;18.30;40.01;99682.03;5028572;28;20045;-76
2022/12/01 01:50:12;;;;;;;16.38;11.18;;;17.60;72.40;;;18.27;40.19;99677.13;4998541;28;20440;-76
2022/12/01 01:52:44;;;;;;;15.43;10.82;;;17.60;72.30;;;18.27;39.94;99685.38;5010922;28;20049;-76
2022/12/01 01:55:10;;;;;;;16.77;10.95;;;17.60;72.20;;;18.30;39.83;99686.69;5030160;28;20089;-76
2022/12/01 01:57:36;;;;;;;17.83;11.85;;;17.60;72.20;;;18.32;40.05;99679.78;5033464;28;20505;-76
2022/12/01 02:00:23;;;;;;;18.65;10.80;;;17.60;72.50;;;18.31;40.26;99683.63;5004151;28;20066;-76
2022/12/01 02:02:49;;;;;;;15.13;10.07;;;17.60;72.60;;;18.32;40.15;99684.44;5044260;28;20052;-76
2022/12/01 02:05:23;;;;;;;19.48;12.00;;;17.60;72.50;;;18.33;40.15;99677.84;5011963;28;20057;-76
2022/12/01 02:07:51;;;;;;;17.05;10.02;;;17.60;72.30;;;18.32;40.03;99682.53;5027969;28;20389;-76
2022/12/01 02:10:21;;;;;;;16.13;10.32;;;17.60;72.20;;;18.32;40.09;99685.28;5007748;28;20053;-76
2022/12/01 02:13:32;;;;;;;15.50;9.75;;;17.60;72.20;;;18.33;39.79;99680.59;5012861;28;20456;-76
2022/12/01 02:16:10;;;;;;;15.25;10.38;;;17.70;72.20;;;18.34;40.17;99683.06;5042583;28;20506;-76
2022/12/01 02:19:10;;;;;;;16.10;10.25;;;17.60;72.40;;;18.35;40.14;99690.16;5029191;28;20049;-76
2022/12/01 02:22:06;;;;;;;16.30;10.05;;;17.70;72.40;;;18.35;40.07;99683.84;5028228;28;20064;-76
2022/12/01 02:25:18;;;;;;;16.95;11.30;;;17.70;72.20;;;18.34;40.09;99676.72;5026144;28;20432;-76
2022/12/01 02:28:05;;;;;;;17.25;9.20;;;17.70;72.20;;;18.31;39.93;99686.38;5030227;28;20492;-76
2022/12/01 02:30:49;;;;;;;17.15;10.68;;;17.80;72.00;;;18.35;39.95;99684.66;5029090;28;20037;-76
2022/12/01 02:33:47;;;;;;;13.77;10.15;;;17.70;72.30;;;18.35;40.16;99684.66;5012607;28;20160;-76
2022/12/01 02:36:15;;;;;;;16.30;10.32;;;17.70;72.30;;;18.32;40.20;99685.28;5044332;28;20045;-76
2022/12/01 02:39:20;;;;;;;14.48;9.70;;;17.70;72.30;;;18.33;40.05;99681.41;5026500;28;20045;-77
2022/12/01 02:42:04;;;;;;;14.23;9.63;;;17.70;72.30;;;18.34;40.05;99687.72;5019012;28;20060;-77
2022/12/01 02:44:38;;;;;;;17.55;11.15;;;17.70;72.20;;;18.33;39.89;99678.66;5015540;28;20061;-76
2022/12/01 02:47:12;;;;;;;17.73;10.18;;;17.70;72.00;;;18.36;40.06;99680.78;5011778;28;20048;-77
2022/12/01 02:49:58;;;;;;;16.63;9.50;;;17.70;72.20;;;18.33;40.06;99680.59;5012480;28;20052;-77
2022/12/01 02:52:25;;;;;;;15.68;9.52;;;17.70;72.30;;;18.30;40.07;99684.75;5011460;28;20046;-77
2022/12/01 02:54:51;;;;;;;14.95;10.07;;;17.70;72.20;;;18.33;40.04;99675.91;5023965;28;20107;-77
2022/12/01 02:57:22;;;;;;;17.30;10.05;;;17.80;72.00;;;18.34;40.16;99672.06;5010828;28;20049;-77
2022/12/01 02:59:51;;;;;;;16.75;10.10;;;17.80;72.00;;;18.34;39.89;99672.06;5009468;28;20095;-76
2022/12/01 03:02:50;;;;;;;14.07;9.85;;;17.80;71.90;;;18.32;40.06;99668.81;5011108;28;20432;-77
2022/12/01 03:05:43;;;;;;;14.00;9.85;;;17.80;72.00;;;18.32;40.24;99668.81;5012735;28;20048;-77
2022/12/01 03:08:23;;;;;;;16.38;9.88;;;17.80;72.30;;;18.32;40.10;99668.81;5015565;28;20045;-77
2022/12/01 03:10:56;;;;;;;15.30;9.25;;;17.80;72.30;;;18.35;40.08;99668.19;5026613;28;20080;-77
2022/12/01 03:13:50;;;;;;;14.38;9.07;;;17.80;72.00;;;18.32;39.92;99662.47;4995747;28;20049;-77
2022/12/01 03:16:52;;;;;;;12.45;9.07;;;17.80;71.70;;;18.28;39.94;99658.72;5027839;28;20491;-77
2022/12/01 03:19:42;;;;;;;14.32;9.70;;;17.80;71.70;;;18.33;40.16;99658.63;5027133;28;20061;-77
2022/12/01 03:22:15;;;;;;;16.70;9.55;;;17.80;72.00;;;18.30;40.38;99654.56;5022348;28;20596;-76
2022/12/01 03:24:45;;;;;;;16.48;10.18;;;17.80;72.30;;;18.33;40.21;99661.38;5025681;28;20041;-77
2022/12/01 03:27:11;;;;;;;12.55;8.85;;;17.80;72.30;;;18.24;40.21;99661.25;5008640;28;20046;-77
2022/12/01 03:29:41;;;;;;;15.77;9.40;;;17.80;71.90;;;18.29;40.20;99655.66;5027383;28;20380;-77
2022/12/01 03:32:13;;;;;;;13.32;8.30;;;17.90;72.00;;;18.34;39.97;99661.06;5028181;28;20041;-76
2022/12/01 03:34:54;;;;;;;;;;;17.90;71.70;;;18.33;40.11;99648.44;5012532;28;20461;-77
2022/12/01 03:37:24;;;;;;;13.07;8.88;;;17.90;71.90;;;18.30;40.30;99656.50;5024536;28;20031;-77
2022/12/01 03:39:51;;;;;;;12.67;8.53;;;17.80;72.00;;;18.33;40.26;99642.94;5028094;28;20049;-77
2022/12/01 03:42:27;;;;;;;12.13;8.90;;;17.80;72.20;;;18.30;40.14;99651.00;5012958;28;20045;-77
2022/12/01 03:44:55;;;;;;;13.27;8.73;;;17.90;72.20;;;18.28;40.01;99651.28;5026876;28;20052;-77
2022/12/01 03:47:29;;;;;;;13.13;9.27;;;17.90;71.80;;;18.28;40.13;99645.81;5024562;28;20604;-77
2022/12/01 03:49:55;;;;;;;16.52;9.25;;;17.80;71.60;;;18.28;40.00;99634.81;5017326;28;20053;-78
2022/12/01 03:52:49;;;;;;;12.20;8.05;;;17.90;71.80;;;18.34;40.00;99644.59;5032941;28;20047;-78
2022/12/01 03:55:23;;;;;;;13.07;9.02;;;17.80;71.70;;;18.31;39.67;99634.19;5050124;28;20121;-78
2022/12/01 03:58:05;;;;;;;12.55;8.20;;;17.80;71.70;;;18.32;39.37;99635.84;5034624;28;20761;-77
2022/12/01 04:00:31;;;;;;;12.75;8.23;;;17.70;71.40;;;18.25;39.97;99640.13;5015042;28;20483;-77
2022/12/01 04:03:00;;;;;;;13.02;7.70;;;17.80;71.30;;;18.28;39.83;99637.56;5034832;28;20049;-77
2022/12/01 04:05:27;;;;;;;14.57;9.32;;;17.80;71.30;;;18.30;39.93;99635.31;5031894;28;20041;-77
2022/12/01 04:07:53;;;;;;;9.88;7.07;;;17.80;71.60;;;18.31;39.91;99628.69;5034554;28;20068;-77
2022/12/01 04:10:19;;;;;;;11.65;8.27;;;17.70;71.80;;;18.29;39.57;99622.69;5031499;28;20086;-77
2022/12/01 04:12:45;;;;;;;12.13;8.23;;;17.80;71.50;;;18.27;39.67;99622.22;5017318;28;20052;-77
2022/12/01 04:15:13;;;;;;;12.32;8.40;;;17.80;71.20;;;18.26;39.85;99620.56;5048117;28;20096;-77
2022/12/01 04:17:43;;;;;;;12.95;8.77;;;17.80;71.00;;;18.24;39.29;99628.28;5018275;28;20436;-78
2022/12/01 04:20:11;;;;;;;10.27;8.10;;;17.80;70.80;;;18.25;39.90;99629.94;5002111;28;20091;-77
2022/12/01 04:22:37;;;;;;;10.18;6.95;;;17.70;71.20;;;18.23;39.73;99632.16;5016106;28;20479;-77
2022/12/01 04:25:05;;;;;;;16.08;8.07;;;17.70;71.50;;;18.23;39.61;99635.72;5033039;28;20046;-77
2022/12/01 04:27:31;;;;;;;11.25;7.88;;;17.70;71.30;;;18.25;39.58;99634.63;5028056;28;20045;-77
2022/12/01 04:29:58;;;;;;;11.10;6.85;;;17.70;71.10;;;18.29;39.23;99630.13;5015984;28;20053;-77
2022/12/01 04:32:24;;;;;;;11.25;7.97;;;17.70;71.10;;;18.15;39.45;99628.19;4999118;28;20437;-77
2022/12/01 04:34:50;;;;;;;10.02;7.50;;;17.70;70.80;;;18.20;39.55;99633.59;5030997;28;20049;-77
2022/12/01 04:37:16;;;;;;;10.40;7.53;;;17.70;70.90;;;18.22;39.68;99636.03;5012633;28;20405;-77
2022/12/01 04:39:43;;;;;;;9.77;7.78;;;17.70;71.20;;;18.24;39.65;99631.03;4997876;28;20502;-76
2022/12/01 04:42:09;;;;;;;10.00;7.30;;;17.70;71.30;;;18.26;39.47;99628.00;5032870;28;20208;-77
2022/12/01 04:44:35;;;;;;;11.00;7.43;;;17.70;71.00;;;18.25;39.32;99629.13;5010880;28;20053;-77
2022/12/01 04:47:03;;;;;;;11.98;7.97;;;17.70;70.90;;;18.23;39.42;99626.66;5027099;28;20046;-76
2022/12/01 04:49:29;;;;;;;10.63;6.80;;;17.60;70.60;;;18.21;39.31;99626.97;5026655;28;20048;-77
2022/12/01 04:51:55;;;;;;;7.68;6.60;;;17.70;70.40;;;18.19;39.83;99637.47;5028047;28;20404;-77
2022/12/01 04:54:22;;;;;;;10.57;7.90;;;17.70;70.60;;;18.22;39.70;99631.34;5026826;28;20379;-77
2022/12/01 04:56:47;;;;;;;9.23;6.78;;;17.70;70.90;;;18.25;39.53;99629.13;5026528;28;20088;-77
2022/12/01 04:59:14;;;;;;;12.43;7.82;;;17.70;71.10;;;18.23;39.31;99632.97;5030033;28;20478;-77
2022/12/01 05:01:40;;;;;;;10.98;7.57;;;17.60;70.50;;;18.16;39.13;99621.56;5030931;28;20437;-77
2022/12/01 05:04:06;;;;;;;10.20;6.93;;;17.60;70.60;;;18.20;39.10;99630.03;5011285;28;20061;-77
2022/12/01 05:06:33;;;;;;;10.73;7.60;;;17.60;70.10;;;18.13;39.20;99637.84;5030102;28;20061;-77
2022/12/01 05:09:00;;;;;;;10.73;7.47;;;17.70;70.20;;;18.19;39.45;99634.72;5014378;28;20038;-77
2022/12/01 05:11:27;;;;;;;9.90;7.43;;;17.70;70.60;;;18.20;39.37;99638.28;5012802;28;20072;-77
2022/12/01 05:13:53;;;;;;;11.02;7.72;;;17.70;70.80;;;18.17;39.26;99639.69;5030566;28;20056;-77
2022/12/01 05:16:27;;;;;;;11.45;8.02;;;17.70;70.50;;;18.20;39.07;99638.28;4998946;28;20497;-77
2022/12/01 05:20:55;;;;;;;8.50;6.55;;;17.60;70.30;;;18.19;39.15;99634.72;5018586;28;20049;-77
2022/12/01 05:21:42;;;;;;;10.02;7.82;;;17.60;70.30;;;18.15;38.98;99639.19;5028909;28;20112;-77
2022/12/01 05:24:08;;;;;;;10.00;7.20;;;17.60;70.10;;;18.18;39.04;99640.50;5021475;28;20052;-77
2022/12/01 05:26:34;;;;;;;11.23;7.90;;;17.60;70.20;;;18.17;39.39;99641.63;5017029;28;20041;-77
2022/12/01 05:29:01;;;;;;;9.93;7.70;;;17.70;70.80;;;18.17;39.39;99636.94;5031066;28;20045;-77
2022/12/01 05:31:27;;;;;;;10.75;6.88;;;17.60;70.80;;;18.18;39.15;99637.75;5030023;28;20045;-74
2022/12/01 05:33:53;;;;;;;10.85;8.15;;;17.70;70.20;;;18.18;39.14;99646.81;5010771;28;20037;-74
2022/12/01 05:36:19;;;;;;;9.23;6.03;;;17.60;70.10;;;18.11;38.96;99640.88;5020125;28;20045;-74
2022/12/01 05:38:46;;;;;;;11.38;6.60;;;17.60;70.10;;;18.07;39.10;99650.06;5029911;28;20036;-74
2022/12/01 05:41:13;;;;;;;8.77;6.53;;;17.60;70.10;;;18.06;39.35;99653.91;4999786;28;20053;-74
2022/12/01 05:43:39;;;;;;;7.97;5.43;;;17.60;70.30;;;18.15;39.53;99649.34;5014097;28;20037;-74
2022/12/01 05:46:05;;;;;;;9.77;6.53;;;17.60;70.60;;;18.14;39.32;99644.97;4997915;28;20107;-74
2022/12/01 05:48:31;;;;;;;8.98;6.45;;;17.60;70.60;;;18.14;39.05;99640.31;5029512;28;20045;-74
2022/12/01 05:50:57;;;;;;;8.52;6.55;;;17.60;70.50;;;18.11;39.05;99648.31;4998358;28;20485;-75
2022/12/01 05:53:23;;;;;;;7.97;6.10;;;17.60;70.30;;;18.11;39.07;99653.81;5014611;28;20546;-75
2022/12/01 05:55:53;;;;;;;10.77;6.70;;;17.60;70.10;;;18.14;39.39;99650.44;4997573;28;20045;-75
2022/12/01 05:58:22;;;;;;;10.35;6.75;;;17.60;70.10;;;18.16;39.03;99660.00;5027599;28;20397;-75
2022/12/01 06:00:48;;;;;;;9.00;6.55;;;17.60;70.10;;;18.15;38.96;99663.09;5013689;28;20075;-74
2022/12/01 06:03:14;;;;;;;7.35;5.72;;;17.50;70.30;;;18.12;39.48;99664.50;5024760;28;20468;-74
2022/12/01 06:05:40;;;;;;;7.78;6.22;;;17.50;70.80;;;18.15;39.38;99663.88;5027351;28;20111;-74
2022/12/01 06:08:07;;;;;;;10.15;6.55;;;17.50;70.90;;;18.13;39.26;99668.88;5028802;28;20398;-74
2022/12/01 06:10:33;;;;;;;12.38;7.22;;;17.50;71.00;;;18.14;39.23;99666.94;5009916;28;20111;-74
2022/12/01 06:12:59;;;;;;;8.07;5.88;;;17.50;70.70;;;18.17;39.28;99677.31;5026451;28;20033;-74
2022/12/01 06:15:25;;;;;;;9.95;7.03;;;17.50;70.60;;;18.15;39.09;99674.06;5029143;28;20461;-74
2022/12/01 06:17:52;;;;;;;9.55;7.25;;;17.50;70.60;;;18.12;39.42;99677.41;5012436;28;20046;-75
2022/12/01 06:20:18;;;;;;;7.15;5.28;;;17.50;70.90;;;18.09;39.50;99676.09;5027459;28;20044;-75
2022/12/01 06:22:44;;;;;;;10.13;6.20;;;17.50;71.00;;;18.11;39.41;99673.03;5027309;28;20041;-75
2022/12/01 06:25:10;;;;;;;10.20;5.75;;;17.50;71.20;;;18.10;39.47;99672.22;5014147;28;20072;-76
2022/12/01 06:27:36;;;;;;;9.55;6.43;;;17.50;70.90;;;18.11;39.32;99684.00;4995539;28;20048;-74
2022/12/01 06:30:03;;;;;;;6.97;5.50;;;17.50;70.90;;;18.11;39.20;99679.31;5008749;28;20050;-74
2022/12/01 06:32:31;;;;;;;8.02;5.85;;;17.50;71.00;;;18.13;39.06;99684.53;4980282;28;20037;-76
2022/12/01 06:34:57;;;;;;;7.63;5.65;;;17.50;71.00;;;18.09;39.42;99678.00;5025836;28;20052;-76
2022/12/01 06:37:23;;;;;;;7.47;5.50;;;17.50;71.20;;;18.07;39.72;99680.25;5011006;28;20493;-75
2022/12/01 06:39:49;;;;;;;9.48;6.40;;;17.50;71.20;;;18.06;39.83;99686.84;5025657;28;20090;-75
2022/12/01 06:42:15;;;;;;;6.45;5.20;;;17.50;71.40;;;18.07;39.65;99677.50;5025605;28;20046;-74
2022/12/01 06:44:41;;;;;;;10.55;6.97;;;17.50;71.20;;;18.06;39.56;99676.66;4995000;28;20046;-74
2022/12/01 06:47:07;;;;;;;6.00;4.72;;;17.40;71.40;;;18.08;39.41;99668.16;5025765;28;20056;-74
2022/12/01 06:49:33;;;;;;;8.45;5.53;;;17.40;71.30;;;18.05;39.63;99672.31;5025923;28;20401;-74
2022/12/01 06:52:00;;;;;;;7.88;6.07;;;17.40;71.30;;;18.03;39.71;99676.47;5022341;28;20439;-74
2022/12/01 06:54:26;;;;;;;7.00;5.63;;;17.40;71.40;;;18.06;39.91;99673.13;5024285;28;20455;-74
2022/12/01 06:56:52;;;;;;;7.55;5.82;;;17.40;71.60;;;18.00;39.75;99673.22;5025776;28;20049;-74
2022/12/01 06:59:18;;;;;;;7.60;5.68;;;17.50;71.70;;;18.04;39.58;99678.09;5010449;28;20126;-74
2022/12/01 07:01:45;;;;;;;9.65;6.07;;;17.40;71.40;;;18.02;39.77;99680.34;5015510;28;20044;-74
2022/12/01 07:04:10;;;;;;;6.57;4.70;;;17.30;71.30;;;18.03;39.60;99679.22;5026752;28;20045;-74
2022/12/01 07:06:37;;;;;;;9.10;6.55;;;17.40;71.60;;;18.04;39.76;99683.59;5010984;28;20049;-74
2022/12/01 07:09:03;;;;;;;8.93;5.85;;;17.30;71.70;;;18.05;39.83;99687.97;5026893;28;20048;-74
2022/12/01 07:11:31;;;;;;;8.18;6.00;;;17.30;71.80;;;18.02;40.05;99681.16;4993282;28;20163;-74
2022/12/01 07:13:57;;;;;;;7.75;5.35;;;17.40;71.90;;;17.97;40.40;99687.53;5025061;28;20050;-74
2022/12/01 07:16:25;;;;;;;9.77;6.43;;;17.50;71.70;;;17.99;40.06;99677.09;5027393;28;20045;-74
2022/12/01 07:18:51;;;;;;;7.72;5.22;;;17.40;71.50;;;18.00;39.76;99684.19;5023557;28;20175;-74
2022/12/01 07:21:17;;;;;;;8.73;6.32;;;17.40;71.40;;;18.01;39.85;99685.00;5019822;28;20056;-74
2022/12/01 07:23:43;;;;;;;6.63;4.82;;;17.40;71.60;;;18.03;39.80;99676.47;5020999;28;20045;-74
2022/12/01 07:26:15;;;;;;;8.80;6.05;;;17.40;71.60;;;18.00;39.78;99678.69;5000846;28;20041;-74
2022/12/01 07:28:41;;;;;;;8.60;5.88;;;17.40;71.90;;;17.98;40.20;99678.19;5028777;28;20044;-75
2022/12/01 07:31:16;;;;;;;7.90;5.63;;;17.40;71.90;;;17.99;39.78;99682.56;5010390;28;20045;-74
2022/12/01 07:33:42;;;;;;;6.43;4.97;;;17.40;71.60;;;17.98;40.02;99675.44;5029071;28;20417;-74
2022/12/01 07:36:10;;;;;;;7.13;5.40;;;17.30;71.80;;;17.96;39.71;99680.44;5025851;28;20530;-74
2022/12/01 07:38:36;;;;;;;6.97;5.35;;;17.30;71.70;;;17.95;40.05;99677.97;5015998;28;20053;-74
2022/12/01 07:41:08;;;;;;;7.22;5.57;;;17.30;71.60;;;17.96;40.54;99688.69;5019498;28;20053;-74
2022/12/01 07:43:34;;;;;;;5.65;5.00;;;17.40;71.90;;;17.97;40.14;99682.06;5028546;28;20109;-74
2022/12/01 07:46:09;;;;;;;6.47;4.85;;;17.40;71.90;;;17.96;40.00;99683.19;5033004;28;20042;-74
2022/12/01 07:48:36;;;;;;;6.18;4.90;;;17.30;71.80;;;17.95;40.19;99680.72;5046623;28;20041;-74
2022/12/01 07:51:04;;;;;;;8.48;5.93;;;17.30;71.80;;;17.94;40.05;99679.91;5027850;28;20038;-74
2022/12/01 07:53:31;;;;;;;5.82;4.90;;;17.30;71.80;;;17.94;39.72;99684.59;5030558;28;20122;-74
2022/12/01 07:55:57;;;;;;;6.60;5.43;;;17.30;71.80;;;17.96;40.18;99683.19;5012105;28;20049;-74
2022/12/01 07:58:23;;;;;;;8.35;5.60;;;17.30;71.80;;;17.92;40.16;99681.34;5044033;28;20073;-74
2022/12/01 08:00:50;;;;;;;5.88;4.85;;;17.30;71.90;;;17.93;40.17;99682.94;5029594;28;20079;-74
2022/12/01 08:03:16;;;;;;;6.03;5.30;;;17.30;71.90;;;17.91;39.92;99680.53;5030144;28;20152;-74
2022/12/01 08:05:42;;;;;;;6.90;5.53;;;17.30;71.80;;;17.86;40.15;99680.63;5022776;28;20053;-74
2022/12/01 08:08:08;;;;;;;6.90;5.78;;;17.20;71.90;;;17.89;39.89;99688.25;5030755;28;20049;-74
2022/12/01 08:10:35;;;;;;;8.85;6.45;;;17.20;71.80;;;17.92;40.06;99687.63;5030661;28;20041;-74
2022/12/01 08:13:01;;;;;;;6.38;4.80;;;17.20;71.80;;;17.92;39.97;99690.38;5018614;28;20046;-74
2022/12/01 08:15:27;;;;;;;6.22;4.90;;;17.20;72.00;;;17.94;40.16;99690.09;5033612;28;20041;-74
2022/12/01 08:17:53;;;;;;;8.07;6.18;;;17.20;72.00;;;17.92;40.13;99690.38;5020347;28;20049;-74
2022/12/01 08:20:20;;;;;;;6.30;5.07;;;17.30;72.00;;;17.91;39.96;99687.91;5029852;28;20041;-74
2022/12/01 08:22:46;;;;;;;6.10;4.65;;;17.20;71.90;;;17.88;40.02;99692.09;5027903;28;20051;-74
2022/12/01 08:25:12;;;;;;;6.95;5.20;;;17.20;71.80;;;17.89;39.72;99696.47;5029851;28;20042;-74
2022/12/01 08:27:38;;;;;;;8.27;5.90;;;17.20;71.80;;;17.90;39.97;99700.84;5029973;28;20410;-74
2022/12/01 08:30:05;;;;;;;6.00;4.68;;;17.20;71.90;;;17.92;40.07;99698.63;5027858;28;20048;-74
2022/12/01 08:32:31;;;;;;;4.63;4.20;;;17.20;72.10;;;17.91;40.20;99705.22;5030281;28;20044;-74
2022/12/01 08:34:58;;;;;;;8.90;6.22;;;17.30;72.00;;;17.85;40.07;99698.19;5029917;28;20056;-74
2022/12/01 08:37:23;;;;;;;6.65;5.28;;;17.30;71.80;;;17.89;40.27;99712.13;5009413;28;20095;-74
2022/12/01 08:39:52;;;;;;;5.88;4.85;;;17.20;71.90;;;17.90;39.83;99705.53;5026671;28;20504;-74
2022/12/01 08:42:19;;;;;;;6.82;5.13;;;17.20;71.80;;;17.88;39.99;99713.22;5012489;28;20045;-74
2022/12/01 08:44:46;;;;;;;5.75;5.13;;;17.20;71.70;;;17.83;40.24;99713.31;5028538;28;20042;-74
2022/12/01 08:47:11;;;;;;;7.45;5.70;;;17.20;71.90;;;17.89;40.07;99714.88;5009888;28;20056;-74
2022/12/01 08:49:38;;;;;;;7.90;5.93;;;17.30;72.00;;;17.87;40.33;99709.69;5026495;28;20135;-74
2022/12/01 08:52:04;;;;;;;7.45;5.43;;;17.20;72.00;;;17.87;40.15;99712.41;5010173;28;20049;-74
2022/12/01 08:54:30;;;;;;;6.85;5.53;;;17.20;71.90;;;17.86;40.10;99709.97;5025985;28;20037;-74
2022/12/01 08:56:56;;;;;;;7.03;5.00;;;17.20;71.80;;;17.86;39.90;99712.72;5027174;28;20526;-74
2022/12/01 08:59:22;;;;;;;6.40;5.03;;;17.20;71.70;;;17.89;39.72;99714.88;4994720;28;20041;-74
2022/12/01 09:01:52;;;;;;;6.15;5.25;;;17.20;71.60;;;17.89;40.02;99715.69;5010790;28;20072;-74
2022/12/01 09:04:23;;;;;;;5.05;4.55;;;17.30;71.80;;;17.89;40.05;99721.19;5026693;28;20470;-74
2022/12/01 09:06:50;;;;;;;7.57;5.43;;;17.30;72.00;;;17.88;39.93;99710.47;5010112;28;20433;-74
2022/12/01 09:09:19;;;;;;;5.07;4.57;;;17.20;71.80;;;17.88;39.92;99711.28;5009973;28;20077;-74
2022/12/01 09:11:45;;;;;;;7.43;5.38;;;17.20;71.70;;;17.86;39.92;99715.44;5020595;28;20079;-74
2022/12/01 09:14:12;;;;;;;5.20;4.70;;;17.20;71.60;;;17.87;39.73;99715.16;5024482;28;20061;-75
2022/12/01 09:16:39;;;;;;;6.13;4.72;;;17.30;71.60;;;17.87;39.79;99717.09;5025289;28;20485;-75
2022/12/01 09:19:06;;;;;;;5.25;4.63;;;17.20;71.70;;;17.86;40.13;99708.06;5026527;28;20049;-75
2022/12/01 09:21:33;;;;;;;6.75;5.65;;;17.20;71.80;;;17.87;40.16;99709.69;5008922;28;20099;-74
2022/12/01 09:24:00;;;;;;;5.90;5.22;;;17.30;71.90;;;17.86;40.27;99697.09;5025977;28;20060;-74
2022/12/01 09:26:26;;;;;;;5.88;4.70;;;17.20;71.70;;;17.81;40.12;99713.63;5022130;28;20041;-74
2022/12/01 09:28:54;;;;;;;6.47;5.18;;;17.10;71.80;;;17.84;40.02;99703.97;5024332;28;20057;-74
2022/12/01 09:31:22;;;;;;;5.97;4.55;;;17.20;71.70;;;17.83;39.91;99703.16;5044037;28;20073;-74
2022/12/01 09:33:57;;;;;;;5.20;4.10;;;17.20;71.70;;;17.87;40.09;99690.47;5025663;28;20061;-74
2022/12/01 09:36:23;;;;;;;4.78;4.10;;;17.20;71.70;;;17.86;40.09;99691.59;5024579;28;20052;-74
2022/12/01 09:38:49;;;;;;;6.32;5.00;;;17.30;71.80;;;17.87;40.19;99681.41;5024335;28;20470;-74
2022/12/01 09:41:43;;;;;;;5.80;5.07;;;17.30;72.50;;;17.81;39.71;99688.94;5009029;28;20071;-74
2022/12/01 09:44:12;;;;;;;7.35;5.47;;;17.20;71.70;;;17.79;40.10;99686.47;5018228;28;20507;-74
2022/12/01 09:47:17;;;;;;;5.70;4.47;;;17.20;71.80;;;17.79;39.84;99693.88;5024223;28;20124;-74
2022/12/01 09:49:50;;;;;;;6.88;4.78;;;17.20;71.70;;;17.79;39.98;99688.38;5031725;28;20064;-74
2022/12/01 09:52:17;;;;;;;6.82;5.45;;;17.20;71.90;;;17.85;39.89;99689.13;5040109;28;20077;-74
2022/12/01 09:54:45;;;;;;;6.40;4.03;;;17.10;71.80;;;17.81;40.09;99677.94;5023596;28;20087;-74
2022/12/01 09:57:35;;;;;;;5.85;5.20;;;17.10;71.90;;;17.80;40.12;99681.78;5025857;28;20550;-74
2022/12/01 10:00:07;;;;;;;6.28;5.10;;;17.10;71.80;;;17.81;39.92;99677.13;5025603;28;20045;-74
2022/12/01 10:03:05;;;;;;;6.28;5.05;;;17.10;71.60;;;17.78;39.85;99679.34;5009084;28;20053;-74
2022/12/01 10:06:07;;;;;;;4.95;4.20;;;17.20;71.70;;;17.81;39.91;99677.94;5038371;28;20164;-74
2022/12/01 10:08:37;;;;;;;5.72;4.15;;;17.20;71.70;;;17.81;39.97;99677.13;5026421;28;20060;-74
2022/12/01 10:11:23;;;;;;;5.72;4.22;;;17.20;71.70;;;17.83;39.95;99675.69;5014391;28;20041;-74
2022/12/01 10:13:49;;;;;;;5.40;4.10;;;17.20;71.70;;;17.81;40.11;99677.13;5025983;28;20037;-74
2022/12/01 10:16:24;;;;;;;6.95;5.18;;;17.10;71.70;;;17.76;39.92;99672.53;5018803;28;20046;-74
2022/12/01 10:19:27;;;;;;;5.18;4.40;;;17.10;71.80;;;17.78;39.79;99676.59;5008319;28;20045;-74
2022/12/01 10:22:02;;;;;;;8.40;5.10;;;17.10;71.60;;;17.78;39.86;99681.25;5025523;28;20164;-74
2022/12/01 10:24:32;;;;;;;5.60;4.85;;;17.20;71.70;;;17.79;40.09;99675.50;5023909;28;20369;-75
2022/12/01 10:27:49;;;;;;;6.47;5.38;;;17.10;71.60;;;17.78;39.99;99675.75;5019194;28;20065;-75
2022/12/01 10:30:24;;;;;;;5.50;4.68;;;17.10;71.70;;;17.77;39.92;99671.41;5025005;28;20076;-74
2022/12/01 10:32:57;;;;;;;5.35;4.82;;;17.10;71.60;;;17.76;39.99;99675.25;5009207;28;20298;-74